createdAt,value
2022-10-18T00:01:02.650Z,86.68
2022-10-18T00:03:30.791Z,87.07
2022-10-18T00:05:59.329Z,87.45
2022-10-18T00:08:27.362Z,86.73
2022-10-18T00:10:55.330Z,87.12
2022-10-18T00:13:23.300Z,87.59
2022-10-18T00:15:52.216Z,87.58
2022-10-18T00:18:20.036Z,88.06
2022-10-18T00:21:00.665Z,87.81
2022-10-18T00:23:29.538Z,87.60
2022-10-18T00:26:04.278Z,88.34
2022-10-18T00:28:33.748Z,88.38
2022-10-18T00:31:18.781Z,88.23
2022-10-18T00:33:49.820Z,87.79
2022-10-18T00:36:17.804Z,88.00
2022-10-18T00:38:46.277Z,88.02
2022-10-18T00:41:16.997Z,88.74
2022-10-18T00:44:11.176Z,88.29
2022-10-18T00:46:41.171Z,88.91
2022-10-18T00:49:17.419Z,89.04
2022-10-18T00:51:48.430Z,88.77
2022-10-18T00:54:17.795Z,88.96
2022-10-18T00:56:46.017Z,89.23
2022-10-18T00:59:16.170Z,89.71
2022-10-18T01:01:44.770Z,88.99
2022-10-18T01:04:14.723Z,89.13
2022-10-18T01:09:40.004Z,88.82
2022-10-18T01:12:34.552Z,89.12
2022-10-18T01:15:15.346Z,89.34
2022-10-18T01:18:09.934Z,89.01
2022-10-18T01:20:58.793Z,88.80
2022-10-18T01:23:26.321Z,89.16
2022-10-18T01:26:10.591Z,88.72
2022-10-18T01:28:50.544Z,89.08
2022-10-18T01:31:33.654Z,88.89
2022-10-18T01:34:05.888Z,88.92
2022-10-18T01:36:37.885Z,89.15
2022-10-18T01:39:12.107Z,89.59
2022-10-18T01:41:43.380Z,89.14
2022-10-18T01:44:16.141Z,89.66
2022-10-18T01:46:44.918Z,89.22
2022-10-18T01:49:12.540Z,89.19
2022-10-18T01:51:40.067Z,89.63
2022-10-18T01:54:07.691Z,90.19
2022-10-18T01:57:02.557Z,89.68
2022-10-18T02:00:20.832Z,90.11
2022-10-18T02:03:01.617Z,90.14
2022-10-18T02:05:34.992Z,90.84
2022-10-18T02:08:24.416Z,89.79
2022-10-18T02:11:00.891Z,90.12
2022-10-18T02:13:33.495Z,90.09
2022-10-18T02:16:08.036Z,89.64
2022-10-18T02:18:47.024Z,90.31
2022-10-18T02:21:17.580Z,90.10
2022-10-18T02:23:46.891Z,90.06
2022-10-18T02:26:15.962Z,90.00
2022-10-18T02:28:44.038Z,90.50
2022-10-18T02:31:43.412Z,89.47
2022-10-18T02:34:30.540Z,90.05
2022-10-18T02:37:02.157Z,89.47
2022-10-18T02:39:31.411Z,90.03
2022-10-18T02:41:59.788Z,90.30
2022-10-18T02:44:27.541Z,89.62
2022-10-18T02:46:55.651Z,90.12
2022-10-18T02:49:23.121Z,90.32
2022-10-18T02:51:50.594Z,89.89
2022-10-18T02:54:18.074Z,89.73
2022-10-18T02:56:45.569Z,89.41
2022-10-18T02:59:13.248Z,89.46
2022-10-18T03:01:41.095Z,89.83
2022-10-18T03:04:08.940Z,89.66
2022-10-18T03:06:36.522Z,90.24
2022-10-18T03:09:05.859Z,90.15
2022-10-18T03:11:33.702Z,89.84
2022-10-18T03:14:01.217Z,89.93
2022-10-18T03:16:28.848Z,90.15
2022-10-18T03:18:56.471Z,90.17
2022-10-18T03:21:24.020Z,89.94
2022-10-18T03:23:51.484Z,90.31
2022-10-18T03:26:18.959Z,90.47
2022-10-18T03:28:46.489Z,90.42
2022-10-18T03:31:14.065Z,90.21
2022-10-18T03:33:41.580Z,90.06
2022-10-18T03:36:09.602Z,90.17
2022-10-18T03:38:37.218Z,90.72
2022-10-18T03:41:04.835Z,90.50
2022-10-18T03:43:32.618Z,90.54
2022-10-18T03:46:00.540Z,90.76
2022-10-18T03:48:28.065Z,90.21
2022-10-18T03:50:55.905Z,90.29
2022-10-18T03:53:23.368Z,90.38
2022-10-18T03:55:55.352Z,90.53
2022-10-18T03:58:23.408Z,90.84
2022-10-18T04:00:52.148Z,90.69
2022-10-18T04:03:21.396Z,91.40
2022-10-18T04:05:49.561Z,90.68
2022-10-18T04:08:18.114Z,90.82
2022-10-18T04:10:47.216Z,90.86
2022-10-18T04:13:14.969Z,90.39
2022-10-18T04:15:43.357Z,90.82
2022-10-18T04:18:10.902Z,90.79
2022-10-18T04:20:38.497Z,90.49
2022-10-18T04:23:05.991Z,90.37
2022-10-18T04:25:33.584Z,90.31
2022-10-18T04:28:01.209Z,90.34
2022-10-18T04:30:28.721Z,90.15
2022-10-18T04:32:56.225Z,90.19
2022-10-18T04:35:26.039Z,90.67
2022-10-18T04:37:53.730Z,90.42
2022-10-18T04:40:21.913Z,90.41
2022-10-18T04:42:49.395Z,90.41
2022-10-18T04:45:16.919Z,90.71
2022-10-18T04:47:44.435Z,90.90
2022-10-18T04:50:11.917Z,90.59
2022-10-18T04:52:39.526Z,90.73
2022-10-18T04:55:07.416Z,90.83
2022-10-18T04:57:34.979Z,91.19
2022-10-18T05:00:02.717Z,91.06
2022-10-18T05:02:30.707Z,90.64
2022-10-18T05:04:58.617Z,91.10
2022-10-18T05:07:26.101Z,90.81
2022-10-18T05:09:53.567Z,90.57
2022-10-18T05:12:22.303Z,90.78
2022-10-18T05:14:49.751Z,90.90
2022-10-18T05:17:17.280Z,90.52
2022-10-18T05:19:44.750Z,90.79
2022-10-18T05:22:12.379Z,90.77
2022-10-18T05:24:39.868Z,90.64
2022-10-18T05:27:07.363Z,90.46
2022-10-18T05:29:34.849Z,90.88
2022-10-18T05:32:02.423Z,90.89
2022-10-18T05:34:32.096Z,90.82
2022-10-18T05:37:00.203Z,90.75
2022-10-18T05:39:27.797Z,91.04
2022-10-18T05:41:55.343Z,90.78
2022-10-18T05:44:22.839Z,90.93
2022-10-18T05:46:50.442Z,90.90
2022-10-18T05:49:18.059Z,90.68
2022-10-18T05:51:45.564Z,90.99
2022-10-18T05:54:13.363Z,91.20
2022-10-18T05:56:41.290Z,90.49
2022-10-18T05:59:12.267Z,90.75
2022-10-18T06:01:41.831Z,90.76
2022-10-18T06:04:10.459Z,91.17
2022-10-18T06:06:39.069Z,90.78
2022-10-18T06:09:07.848Z,90.96
2022-10-18T06:11:37.019Z,91.21
2022-10-18T06:14:05.268Z,91.01
2022-10-18T06:16:33.032Z,91.14
2022-10-18T06:19:00.672Z,91.00
2022-10-18T06:21:28.321Z,90.58
2022-10-18T06:23:58.187Z,91.08
2022-10-18T06:26:27.543Z,90.92
2022-10-18T06:28:55.368Z,90.71
2022-10-18T06:31:23.018Z,90.62
2022-10-18T06:33:50.678Z,90.97
2022-10-18T06:36:22.277Z,91.25
2022-10-18T06:38:50.930Z,90.76
2022-10-18T06:41:19.615Z,91.33
2022-10-18T06:43:51.441Z,91.19
2022-10-18T06:46:19.931Z,91.74
2022-10-18T06:48:47.433Z,91.58
2022-10-18T06:51:15.625Z,91.42
2022-10-18T06:53:53.462Z,91.49
2022-10-18T06:56:30.907Z,91.29
2022-10-18T07:01:30.990Z,91.75
2022-10-18T07:03:58.551Z,91.56
2022-10-18T07:06:26.134Z,91.86
2022-10-18T07:08:54.307Z,92.06
2022-10-18T07:11:25.149Z,91.90
2022-10-18T07:13:54.614Z,91.55
2022-10-18T07:16:22.310Z,91.76
2022-10-18T07:18:51.486Z,91.33
2022-10-18T07:21:22.217Z,91.46
2022-10-18T07:23:50.855Z,91.79
2022-10-18T07:26:21.930Z,91.88
2022-10-18T07:28:54.297Z,91.99
2022-10-18T07:31:22.975Z,92.00
2022-10-18T07:33:50.830Z,92.02
2022-10-18T07:36:18.524Z,91.82
2022-10-18T07:38:46.023Z,91.73
2022-10-18T07:41:14.740Z,92.16
2022-10-18T07:43:48.096Z,91.85
2022-10-18T07:46:18.189Z,91.65
2022-10-18T07:48:45.984Z,91.91
2022-10-18T07:51:13.835Z,92.16
2022-10-18T07:53:41.415Z,92.29
2022-10-18T07:56:11.974Z,92.60
2022-10-18T07:58:39.933Z,92.44
2022-10-18T08:01:08.973Z,92.58
2022-10-18T08:03:37.682Z,92.39
2022-10-18T08:06:09.227Z,92.13
2022-10-18T08:08:38.928Z,92.77
2022-10-18T08:11:09.567Z,92.65
2022-10-18T08:13:37.219Z,92.61
2022-10-18T08:16:11.414Z,92.60
2022-10-18T08:18:39.647Z,92.69
2022-10-18T08:21:13.375Z,92.69
2022-10-18T08:23:41.471Z,92.09
2022-10-18T08:26:11.913Z,92.73
2022-10-18T08:28:40.427Z,93.05
2022-10-18T08:31:13.384Z,93.25
2022-10-18T08:33:41.092Z,92.69
2022-10-18T08:36:11.751Z,91.88
2022-10-18T08:38:41.361Z,90.66
2022-10-18T08:41:30.124Z,89.80
2022-10-18T08:44:07.450Z,89.55
2022-10-18T08:46:37.316Z,89.18
2022-10-18T08:49:07.295Z,89.34
2022-10-18T08:51:46.746Z,88.97
2022-10-18T08:54:22.479Z,89.04
2022-10-18T08:57:02.019Z,89.91
2022-10-18T08:59:39.017Z,90.33
2022-10-18T09:02:15.672Z,90.63
2022-10-18T09:05:01.234Z,90.52
2022-10-18T09:08:00.155Z,90.81
2022-10-18T09:10:42.885Z,90.94
2022-10-18T09:13:16.150Z,90.62
2022-10-18T09:15:52.668Z,90.46
2022-10-18T09:18:40.707Z,90.61
2022-10-18T09:21:27.107Z,90.48
2022-10-18T09:24:13.457Z,90.49
2022-10-18T09:26:49.969Z,90.36
2022-10-18T09:29:26.765Z,90.59
2022-10-18T09:32:45.189Z,89.75
2022-10-18T09:35:15.107Z,89.56
2022-10-18T09:37:44.101Z,89.89
2022-10-18T09:40:23.546Z,89.65
2022-10-18T09:42:51.042Z,90.00
2022-10-18T09:45:34.775Z,89.19
2022-10-18T09:48:23.861Z,86.24
2022-10-18T09:51:02.813Z,83.45
2022-10-18T09:53:32.978Z,81.43
2022-10-18T09:56:19.112Z,78.58
2022-10-18T09:58:49.377Z,77.19
2022-10-18T10:01:22.107Z,75.11
2022-10-18T10:03:49.641Z,73.85
2022-10-18T10:06:18.404Z,71.77
2022-10-18T10:08:54.470Z,70.98
2022-10-18T10:11:46.263Z,69.40
2022-10-18T10:14:21.652Z,68.28
2022-10-18T10:16:50.898Z,66.86
2022-10-18T10:19:25.278Z,65.40
2022-10-18T10:21:57.175Z,64.35
2022-10-18T10:24:35.679Z,63.56
2022-10-18T10:27:14.911Z,61.88
2022-10-18T10:29:45.579Z,59.33
2022-10-18T10:32:15.812Z,56.33
2022-10-18T10:34:44.966Z,55.04
2022-10-18T10:37:32.504Z,51.43
2022-10-18T10:40:31.682Z,50.29
2022-10-18T10:43:12.912Z,49.80
2022-10-18T10:46:02.400Z,47.61
2022-10-18T10:48:40.923Z,47.54
2022-10-18T10:51:10.624Z,46.95
2022-10-18T10:53:46.278Z,45.76
2022-10-18T10:56:38.943Z,45.11
2022-10-18T10:59:20.136Z,44.67
2022-10-18T11:01:50.241Z,44.51
2022-10-18T11:04:29.748Z,43.77
2022-10-18T11:06:57.215Z,43.52
2022-10-18T11:09:31.277Z,43.18
2022-10-18T11:12:18.518Z,42.52
2022-10-18T11:14:56.025Z,43.35
2022-10-18T11:17:40.632Z,43.33
2022-10-18T11:20:09.978Z,42.42
2022-10-18T11:22:51.988Z,41.16
2022-10-18T11:25:25.332Z,41.73
2022-10-18T11:28:01.942Z,41.13
2022-10-18T11:30:43.481Z,40.56
2022-10-18T11:33:10.938Z,41.00
2022-10-18T11:35:48.099Z,39.94
2022-10-18T11:38:45.127Z,40.25
2022-10-18T11:41:12.606Z,41.26
2022-10-18T11:44:01.145Z,41.39
2022-10-18T11:46:48.687Z,41.32
2022-10-18T11:49:32.406Z,40.23
2022-10-18T11:52:13.919Z,40.86
2022-10-18T11:55:12.128Z,40.91
2022-10-18T11:58:13.424Z,41.03
2022-10-18T12:01:07.474Z,41.06
2022-10-18T12:04:02.053Z,40.42
2022-10-18T12:06:41.401Z,41.05
2022-10-18T12:09:28.878Z,40.63
2022-10-18T12:12:22.482Z,40.60
2022-10-18T12:14:55.695Z,40.50
2022-10-18T12:17:47.533Z,40.80
2022-10-18T12:20:31.784Z,40.38
2022-10-18T12:22:59.178Z,41.34
2022-10-18T12:25:30.198Z,40.99
2022-10-18T12:28:02.571Z,41.54
2022-10-18T12:31:04.398Z,42.09
2022-10-18T12:33:39.602Z,42.36
2022-10-18T12:36:19.004Z,41.92
2022-10-18T12:38:51.981Z,42.67
2022-10-18T12:41:27.407Z,42.56
2022-10-18T12:44:04.534Z,42.86
2022-10-18T12:46:49.164Z,43.33
2022-10-18T12:49:24.191Z,43.12
2022-10-18T12:51:54.302Z,43.70
2022-10-18T12:54:32.637Z,44.01
2022-10-18T12:57:02.032Z,44.56
2022-10-18T12:59:29.563Z,44.51
2022-10-18T13:01:57.077Z,44.60
2022-10-18T13:04:27.347Z,45.18
2022-10-18T13:07:00.780Z,44.86
2022-10-18T13:09:29.422Z,44.57
2022-10-18T13:12:15.106Z,44.06
2022-10-18T13:15:05.723Z,44.39
2022-10-18T13:17:48.928Z,44.73
2022-10-18T13:20:39.518Z,44.87
2022-10-18T13:23:41.990Z,45.44
2022-10-18T13:26:41.702Z,46.52
2022-10-18T13:29:37.532Z,46.65
2022-10-18T13:32:08.189Z,47.14
2022-10-18T13:34:39.168Z,47.33
2022-10-18T13:37:20.755Z,47.49
2022-10-18T13:39:48.493Z,47.89
2022-10-18T13:42:15.908Z,47.92
2022-10-18T13:44:44.818Z,47.70
2022-10-18T13:47:14.973Z,47.75
2022-10-18T13:49:58.485Z,47.67
2022-10-18T13:53:08.252Z,47.88
2022-10-18T13:55:55.834Z,49.41
2022-10-18T13:59:05.669Z,49.11
2022-10-18T14:01:47.459Z,49.79
2022-10-18T14:04:39.931Z,49.54
2022-10-18T14:07:09.009Z,50.06
2022-10-18T14:09:56.125Z,50.26
2022-10-18T14:12:46.005Z,50.26
2022-10-18T14:15:27.690Z,50.49
2022-10-18T14:18:04.937Z,50.60
2022-10-18T14:20:49.429Z,52.12
2022-10-18T14:23:48.031Z,52.49
2022-10-18T14:26:17.973Z,53.51
2022-10-18T14:28:59.668Z,53.49
2022-10-18T14:31:28.567Z,54.07
2022-10-18T14:33:59.013Z,54.09
2022-10-18T14:36:34.638Z,54.62
2022-10-18T14:39:05.166Z,54.86
2022-10-18T14:41:34.999Z,55.92
2022-10-18T14:44:11.478Z,55.96
2022-10-18T14:46:44.434Z,56.22
2022-10-18T14:49:13.674Z,56.41
2022-10-18T14:51:43.823Z,56.32
2022-10-18T14:54:16.186Z,56.99
2022-10-18T14:56:45.016Z,57.37
2022-10-18T14:59:22.563Z,57.72
2022-10-18T15:01:56.867Z,57.86
2022-10-18T15:04:32.742Z,58.22
2022-10-18T15:07:05.471Z,58.31
2022-10-18T15:09:36.099Z,58.43
2022-10-18T15:12:05.963Z,58.67
2022-10-18T15:14:35.262Z,59.44
2022-10-18T15:17:24.546Z,59.38
2022-10-18T15:20:06.186Z,59.80
2022-10-18T15:22:34.238Z,60.22
2022-10-18T15:25:12.724Z,59.64
2022-10-18T15:27:46.350Z,59.37
2022-10-18T15:30:22.860Z,59.52
2022-10-18T15:32:56.834Z,60.15
2022-10-18T15:35:34.755Z,61.05
2022-10-18T15:38:13.594Z,61.37
2022-10-18T15:40:41.832Z,61.67
2022-10-18T15:43:24.796Z,61.77
2022-10-18T15:45:53.898Z,61.73
2022-10-18T15:48:23.483Z,62.43
2022-10-18T15:51:04.889Z,62.16
2022-10-18T15:53:51.522Z,62.66
2022-10-18T15:56:36.941Z,63.36
2022-10-18T15:59:21.600Z,63.51
2022-10-18T16:01:49.344Z,63.91
2022-10-18T16:04:29.450Z,64.29
2022-10-18T16:06:58.558Z,64.38
2022-10-18T16:09:28.096Z,65.21
2022-10-18T16:11:57.461Z,65.29
2022-10-18T16:14:26.453Z,65.63
2022-10-18T16:16:56.580Z,65.86
2022-10-18T16:19:24.401Z,66.09
2022-10-18T16:21:54.199Z,66.30
2022-10-18T16:24:22.145Z,66.97
2022-10-18T16:26:50.491Z,67.10
2022-10-18T16:29:31.969Z,66.98
2022-10-18T16:32:00.091Z,67.49
2022-10-18T16:34:27.721Z,67.39
2022-10-18T16:36:55.676Z,67.97
2022-10-18T16:39:23.582Z,68.08
2022-10-18T16:41:51.703Z,68.30
2022-10-18T16:44:19.349Z,68.80
2022-10-18T16:46:50.983Z,68.74
2022-10-18T16:49:24.659Z,68.69
2022-10-18T16:51:53.733Z,69.34
2022-10-18T16:54:21.732Z,68.98
2022-10-18T16:56:50.286Z,69.52
2022-10-18T16:59:25.911Z,69.88
2022-10-18T17:01:53.603Z,69.98
2022-10-18T17:04:21.235Z,70.16
2022-10-18T17:06:51.453Z,70.55
2022-10-18T17:09:19.073Z,70.90
2022-10-18T17:11:46.569Z,70.87
2022-10-18T17:14:14.060Z,71.13
2022-10-18T17:16:44.452Z,71.23
2022-10-18T17:19:14.949Z,71.24
2022-10-18T17:21:42.571Z,70.94
2022-10-18T17:24:10.277Z,71.41
2022-10-18T17:26:37.753Z,71.61
2022-10-18T17:29:08.596Z,71.65
2022-10-18T17:31:36.239Z,71.88
2022-10-18T17:34:03.989Z,71.82
2022-10-18T17:36:33.456Z,72.21
2022-10-18T17:39:01.163Z,72.46
2022-10-18T17:41:28.796Z,72.80
2022-10-18T17:43:56.640Z,72.65
2022-10-18T17:46:24.159Z,72.94
2022-10-18T17:48:51.645Z,73.11
2022-10-18T17:51:19.299Z,73.35
2022-10-18T17:53:46.810Z,73.75
2022-10-18T17:56:15.309Z,74.03
2022-10-18T17:58:43.728Z,74.22
2022-10-18T18:01:17.693Z,74.17
2022-10-18T18:03:47.691Z,74.57
2022-10-18T18:06:24.001Z,74.94
2022-10-18T18:08:52.463Z,74.60
2022-10-18T18:11:20.287Z,74.78
2022-10-18T18:13:47.940Z,74.82
2022-10-18T18:16:15.462Z,74.73
2022-10-18T18:18:44.151Z,75.00
2022-10-18T18:21:12.288Z,74.58
2022-10-18T18:23:39.994Z,74.71
2022-10-18T18:26:07.817Z,74.85
2022-10-18T18:28:36.446Z,74.96
2022-10-18T18:31:14.823Z,75.26
2022-10-18T18:33:43.130Z,75.14
2022-10-18T18:36:11.452Z,75.71
2022-10-18T18:38:42.798Z,75.29
2022-10-18T18:41:14.148Z,75.40
2022-10-18T18:43:44.387Z,75.39
2022-10-18T18:46:15.222Z,75.34
2022-10-18T18:48:43.005Z,75.46
2022-10-18T18:51:19.471Z,75.62
2022-10-18T18:53:48.301Z,75.58
2022-10-18T18:56:18.750Z,75.60
2022-10-18T18:58:47.092Z,75.59
2022-10-18T19:01:20.205Z,75.23
2022-10-18T19:03:50.947Z,75.34
2022-10-18T19:06:21.481Z,75.69
2022-10-18T19:08:50.006Z,75.46
2022-10-18T19:11:19.965Z,75.34
2022-10-18T19:13:49.158Z,75.45
2022-10-18T19:16:24.531Z,75.35
2022-10-18T19:18:52.864Z,75.47
2022-10-18T19:21:21.631Z,75.32
2022-10-18T19:23:50.321Z,75.53
2022-10-18T19:26:45.462Z,75.60
2022-10-18T19:29:25.947Z,75.72
2022-10-18T19:31:57.065Z,75.69
2022-10-18T19:34:27.543Z,75.46
2022-10-18T19:36:55.881Z,75.70
2022-10-18T19:39:34.268Z,75.61
2022-10-18T19:42:05.120Z,75.96
2022-10-18T19:44:36.011Z,75.61
2022-10-18T19:47:05.582Z,75.97
2022-10-18T19:49:33.096Z,75.84
2022-10-18T19:52:00.623Z,76.20
2022-10-18T19:54:28.454Z,75.97
2022-10-18T19:56:58.400Z,76.22
2022-10-18T19:59:26.049Z,76.00
2022-10-18T20:01:53.652Z,76.00
2022-10-18T20:04:21.200Z,76.19
2022-10-18T20:06:49.717Z,76.25
2022-10-18T20:09:20.418Z,76.23
2022-10-18T20:11:48.537Z,76.34
2022-10-18T20:14:16.108Z,76.37
2022-10-18T20:16:43.641Z,76.23
2022-10-18T20:19:11.753Z,76.23
2022-10-18T20:21:40.083Z,76.19
2022-10-18T20:24:09.372Z,76.37
2022-10-18T20:26:37.152Z,76.20
2022-10-18T20:29:04.855Z,76.20
2022-10-18T20:31:37.198Z,76.57
2022-10-18T20:34:11.762Z,76.50
2022-10-18T20:36:39.929Z,76.46
2022-10-18T20:39:08.004Z,76.31
2022-10-18T20:41:38.921Z,76.03
2022-10-18T20:44:11.477Z,76.28
2022-10-18T20:46:39.405Z,76.32
2022-10-18T20:49:08.280Z,76.40
2022-10-18T20:51:36.449Z,76.19
2022-10-18T20:54:06.430Z,76.22
2022-10-18T20:56:36.524Z,76.29
2022-10-18T20:59:06.267Z,76.54
2022-10-18T21:01:34.470Z,76.44
2022-10-18T21:04:04.634Z,76.48
2022-10-18T21:06:41.152Z,76.55
2022-10-18T21:09:12.376Z,76.81
2022-10-18T21:11:41.938Z,76.58
2022-10-18T21:14:15.068Z,76.68
2022-10-18T21:16:46.084Z,76.71
2022-10-18T21:19:15.276Z,76.35
2022-10-18T21:21:45.017Z,76.54
2022-10-18T21:24:13.952Z,76.85
2022-10-18T21:26:41.503Z,76.91
2022-10-18T21:29:11.594Z,76.82
2022-10-18T21:31:41.412Z,77.15
2022-10-18T21:34:15.832Z,76.80
2022-10-18T21:36:45.361Z,77.01
2022-10-18T21:39:16.060Z,77.06
2022-10-18T21:41:44.521Z,77.01
2022-10-18T21:44:12.960Z,77.00
2022-10-18T21:46:43.014Z,76.96
2022-10-18T21:49:11.406Z,76.88
2022-10-18T21:51:39.258Z,77.35
2022-10-18T21:54:11.363Z,77.13
2022-10-18T21:56:39.154Z,77.46
2022-10-18T21:59:06.640Z,77.37
2022-10-18T22:01:38.555Z,77.42
2022-10-18T22:04:08.143Z,77.25
2022-10-18T22:06:36.833Z,77.60
2022-10-18T22:09:08.445Z,77.50
2022-10-18T22:11:40.263Z,77.71
2022-10-18T22:14:08.107Z,77.80
2022-10-18T22:16:36.100Z,78.16
2022-10-18T22:19:05.629Z,78.61
2022-10-18T22:21:33.791Z,79.25
2022-10-18T22:24:06.084Z,79.35
2022-10-18T22:26:39.250Z,79.40
2022-10-18T22:29:17.124Z,79.56
2022-10-18T22:31:47.742Z,79.99
2022-10-18T22:34:20.948Z,80.17
2022-10-18T22:36:48.857Z,80.28
2022-10-18T22:39:17.221Z,80.26
2022-10-18T22:41:45.396Z,79.94
2022-10-18T22:44:14.409Z,80.35
2022-10-18T22:46:42.536Z,80.26
2022-10-18T22:49:11.680Z,80.45
2022-10-18T22:51:40.069Z,80.40
2022-10-18T22:54:08.269Z,80.75
2022-10-18T22:56:35.862Z,80.29
2022-10-18T22:59:03.428Z,80.43
2022-10-18T23:01:30.948Z,80.84
2022-10-18T23:03:59.983Z,80.47
2022-10-18T23:06:30.129Z,81.09
2022-10-18T23:08:59.344Z,80.43
2022-10-18T23:11:28.081Z,80.63
2022-10-18T23:13:55.614Z,80.29
2022-10-18T23:16:23.661Z,79.88
2022-10-18T23:18:52.560Z,80.20
2022-10-18T23:21:20.981Z,80.68
2022-10-18T23:23:48.452Z,80.81
2022-10-18T23:26:19.673Z,81.13
2022-10-18T23:28:48.644Z,81.22
2022-10-18T23:31:31.010Z,81.71
2022-10-18T23:34:01.224Z,81.72
2022-10-18T23:36:29.448Z,81.45
2022-10-18T23:38:57.172Z,81.16
2022-10-18T23:41:25.343Z,82.67
2022-10-18T23:43:53.119Z,81.70
2022-10-18T23:46:20.862Z,82.36
2022-10-18T23:48:48.942Z,82.48
2022-10-18T23:51:17.247Z,81.88
2022-10-18T23:53:45.072Z,82.82
2022-10-18T23:56:15.707Z,82.15
2022-10-18T23:58:44.545Z,82.20
